Time;durP1;ratioP1;P1;durP2;ratioP2;P2;SDS_P1;SDS_P2;PMS_P1;PMS_P2;Temp;Humidity;BMP_temperature;BMP_pressure;BME280_temperature;BME280_humidity;BME280_pressure;Samples;Min_cycle;Max_cycle;Signal;HPM_P1;HPM_P2
2021/12/02 00:00:40;;;;;;;11.60;2.30;;;;;;;-6.43;85.66;97774.25;4919138;29;20410;-66
2021/12/02 00:03:08;;;;;;;8.63;2.60;;;;;;;-6.47;86.01;97782.38;4897994;29;20096;-65
2021/12/02 00:05:34;;;;;;;7.93;2.50;;;;;;;-6.48;85.55;97792.06;4881090;29;20151;-66
2021/12/02 00:08:00;;;;;;;7.90;2.22;;;;;;;-6.49;86.93;97797.41;4896877;29;20124;-67
2021/12/02 00:10:31;;;;;;;6.90;2.03;;;;;;;-6.75;86.53;97752.53;4906734;29;20123;-69
2021/12/02 00:12:58;;;;;;;8.88;1.83;;;;;;;-6.52;86.69;97790.56;4884243;29;20220;-66
2021/12/02 00:15:32;;;;;;;8.70;2.40;;;;;;;-6.70;86.31;97762.75;4919192;29;20045;-64
2021/12/02 00:24:06;;;;;;;9.40;2.50;;;;;;;-6.49;87.55;97811.41;4917396;29;20055;-66
2021/12/02 00:26:35;;;;;;;9.93;2.75;;;;;;;-6.56;87.95;97810.91;4875470;29;20055;-65
2021/12/02 00:29:04;;;;;;;8.35;2.78;;;;;;;-6.64;88.38;97792.13;4904748;29;20557;-65
2021/12/02 00:31:31;;;;;;;7.45;2.63;;;;;;;-6.43;88.50;97825.97;4902208;29;20170;-65
2021/12/02 00:34:00;;;;;;;10.95;2.70;;;;;;;-6.49;89.33;97818.44;4921838;29;20051;-65
2021/12/02 00:36:28;;;;;;;7.88;2.13;;;;;;;-6.47;88.77;97829.69;4933299;29;20521;-65
2021/12/02 00:38:55;;;;;;;6.85;2.10;;;;;;;-6.46;89.32;97842.78;4933182;29;20158;-66
2021/12/02 00:41:23;;;;;;;8.18;2.42;;;;;;;-6.45;89.52;97844.44;4931944;29;20154;-66
2021/12/02 00:43:51;;;;;;;7.68;2.22;;;;;;;-6.44;89.51;97847.91;4923563;29;20525;-65
2021/12/02 00:46:19;;;;;;;9.80;2.88;;;;;;;-6.45;89.74;97854.13;4905024;29;20151;-64
2021/12/02 00:48:46;;;;;;;7.43;2.40;;;;;;;-6.45;90.52;97859.38;4922918;29;20051;-65
2021/12/02 00:51:13;;;;;;;9.38;2.72;;;;;;;-6.47;90.28;97850.72;4948631;29;20138;-66
2021/12/02 00:53:46;;;;;;;9.18;2.78;;;;;;;-6.51;90.78;97857.94;4949122;29;20082;-66
2021/12/02 00:56:14;;;;;;;7.80;2.10;;;;;;;-6.47;91.15;97870.00;4948313;29;20082;-65
2021/12/02 00:58:41;;;;;;;8.13;2.60;;;;;;;-6.42;91.45;97869.72;4940081;29;20494;-65
2021/12/02 01:01:07;;;;;;;8.88;2.65;;;;;;;-6.59;91.35;97844.41;4922036;29;20056;-64
2021/12/02 01:03:35;;;;;;;8.63;2.45;;;;;;;-6.48;90.80;97870.06;4902937;29;20534;-65
2021/12/02 01:06:02;;;;;;;8.93;3.08;;;;;;;-6.67;90.90;97844.88;4929705;29;20536;-67
2021/12/02 01:08:29;;;;;;;7.95;2.15;;;;;;;-6.45;92.34;97885.66;4913335;29;20140;-63
2021/12/02 01:10:55;;;;;;;9.43;2.75;;;;;;;-6.47;92.24;97882.25;4898032;29;20530;-66
2021/12/02 01:13:22;;;;;;;9.32;2.50;;;;;;;-6.47;92.53;97893.66;4916776;29;20075;-68
2021/12/02 01:15:48;;;;;;;10.45;3.13;;;;;;;-6.46;91.53;97894.50;4936426;29;20087;-65
2021/12/02 01:18:14;;;;;;;8.02;2.33;;;;;;;-6.46;91.64;97899.75;4908087;29;20091;-67
2021/12/02 01:20:42;;;;;;;7.68;2.63;;;;;;;-6.63;91.46;97875.28;4895830;29;20064;-66
2021/12/02 01:23:09;;;;;;;6.93;1.92;;;;;;;-6.40;90.91;97895.00;4895691;29;20059;-65
2021/12/02 01:25:35;;;;;;;6.55;2.15;;;;;;;-6.38;90.28;97908.03;4894919;29;20066;-65
2021/12/02 01:28:01;;;;;;;7.00;1.95;;;;;;;-6.44;90.43;97882.09;4882953;29;20067;-66
2021/12/02 01:30:28;;;;;;;8.80;2.53;;;;;;;-6.53;89.02;97872.13;4913499;29;20572;-65
2021/12/02 01:33:05;;;;;;;7.18;2.00;;;;;;;-6.62;89.67;97869.09;4913347;29;20060;-65
2021/12/02 01:35:33;;;;;;;6.82;2.25;;;;;;;-6.36;88.87;97908.78;4913711;29;20063;-66
2021/12/02 01:37:59;;;;;;;8.85;1.65;;;;;;;-6.36;89.22;97899.13;4917574;29;20121;-66
2021/12/02 01:40:26;;;;;;;4.97;1.23;;;;;;;-6.31;89.82;97904.94;4914385;29;20092;-65
2021/12/02 01:42:54;;;;;;;6.45;1.80;;;;;;;-6.35;86.86;97911.31;4919914;29;20402;-65
2021/12/02 01:45:22;;;;;;;6.65;2.08;;;;;;;-6.57;87.76;97876.72;4904777;29;20537;-63
2021/12/02 01:47:51;;;;;;;5.68;1.70;;;;;;;-6.30;88.35;97926.81;4914221;29;20630;-65
2021/12/02 01:50:20;;;;;;;8.60;2.20;;;;;;;-6.27;88.05;97917.91;4913402;29;20056;-64
2021/12/02 01:52:49;;;;;;;8.43;2.20;;;;;;;-6.31;88.25;97904.94;4914531;29;20071;-65
2021/12/02 01:55:16;;;;;;;6.35;1.60;;;;;;;-6.24;87.42;97917.75;4899713;29;20064;-68
2021/12/02 01:57:50;;;;;;;8.95;2.20;;;;;;;-6.26;86.88;97930.13;4922319;29;20048;-67
2021/12/02 02:00:21;;;;;;;7.32;2.22;;;;;;;-6.26;87.29;97938.84;4924899;29;20067;-64
2021/12/02 02:02:48;;;;;;;7.53;1.80;;;;;;;-6.37;88.25;97899.19;4922672;29;20111;-64
2021/12/02 02:05:15;;;;;;;7.10;2.40;;;;;;;-6.21;87.36;97920.19;4933850;29;20059;-65
2021/12/02 02:08:22;;;;;;;5.40;1.92;;;;;;;-6.18;85.73;97946.28;4933219;29;20485;-64
2021/12/02 02:10:49;;;;;;;7.35;1.90;;;;;;;-6.20;86.04;97943.75;4880348;29;20112;-66
2021/12/02 02:13:18;;;;;;;6.07;1.70;;;;;;;-6.26;85.87;97936.22;4916680;29;20139;-66
2021/12/02 02:15:47;;;;;;;6.70;1.90;;;;;;;-6.44;86.75;97908.38;4911584;29;20065;-64
2021/12/02 02:18:22;;;;;;;8.93;1.75;;;;;;;-6.11;86.57;97951.09;4880677;29;20075;-66
2021/12/02 02:20:58;;;;;;;6.18;1.60;;;;;;;-6.18;85.58;97948.91;4895798;29;20064;-66
2021/12/02 02:23:26;;;;;;;5.22;1.50;;;;;;;-6.25;85.29;97930.06;4895648;29;20045;-63
2021/12/02 02:25:52;;;;;;;7.07;1.67;;;;;;;-6.36;85.06;97932.44;4894063;29;20095;-65
2021/12/02 02:28:18;;;;;;;5.60;1.70;;;;;;;-6.32;84.46;97945.31;4884081;29;20199;-67
2021/12/02 02:30:44;;;;;;;6.07;1.58;;;;;;;-6.42;84.47;97917.03;4884378;29;20124;-64
2021/12/02 02:33:11;;;;;;;4.60;1.08;;;;;;;-6.46;84.52;97910.25;4921884;29;20541;-64
2021/12/02 02:35:42;;;;;;;4.45;1.20;;;;;;;-6.14;83.92;97963.63;4931708;29;20066;-66
2021/12/02 02:38:08;;;;;;;5.70;1.70;;;;;;;-6.26;82.31;97954.63;4934567;29;20043;-65
2021/12/02 02:40:35;;;;;;;6.00;1.58;;;;;;;-6.34;82.54;97962.97;4934779;29;20126;-66
2021/12/02 02:43:10;;;;;;;3.97;1.23;;;;;;;-6.32;83.29;97961.09;4909350;29;20056;-65
2021/12/02 02:45:38;;;;;;;5.53;1.40;;;;;;;-6.30;82.87;97963.63;4931983;29;20056;-66
2021/12/02 02:48:05;;;;;;;4.85;1.30;;;;;;;-6.35;81.76;97968.31;4887441;29;20492;-64
2021/12/02 02:50:31;;;;;;;4.65;1.13;;;;;;;-6.36;82.36;97969.22;4904677;29;20716;-64
2021/12/02 02:53:10;;;;;;;4.38;1.23;;;;;;;-6.38;82.41;97969.34;4948028;29;20051;-66
2021/12/02 02:55:36;;;;;;;5.10;1.27;;;;;;;-6.35;81.83;97965.69;4947324;29;20337;-63
2021/12/02 02:58:11;;;;;;;5.10;1.30;;;;;;;-6.41;82.30;97960.78;4926363;29;20147;-65
2021/12/02 03:00:46;;;;;;;5.32;1.42;;;;;;;-6.53;83.22;97940.47;4905187;29;20056;-66
2021/12/02 03:03:24;;;;;;;5.30;1.33;;;;;;;-6.53;83.50;97941.31;4911217;29;20515;-63
2021/12/02 03:08:19;;;;;;;7.85;1.42;;;;;;;-6.69;84.15;97916.81;4881500;29;20108;-66
2021/12/02 03:10:50;;;;;;;6.80;1.60;;;;;;;-6.46;84.01;97960.19;4897897;29;20268;-65
2021/12/02 03:18:29;;;;;;;4.60;1.15;;;;;;;-6.37;83.30;97983.31;4912780;29;20052;-65
2021/12/02 03:20:56;;;;;;;3.72;1.05;;;;;;;-6.33;83.61;97990.09;4949494;29;20156;-67
2021/12/02 03:23:23;;;;;;;5.32;1.42;;;;;;;-6.29;83.06;97999.50;4936886;29;20163;-66
2021/12/02 03:25:49;;;;;;;5.90;1.20;;;;;;;-6.25;82.92;97998.41;4951030;29;20055;-65
2021/12/02 03:28:15;;;;;;;4.00;1.13;;;;;;;-6.36;82.92;97974.50;4913590;29;20123;-66
2021/12/02 03:30:41;;;;;;;4.47;1.13;;;;;;;-6.24;83.53;97994.00;4904933;29;20073;-65
2021/12/02 03:33:07;;;;;;;10.00;1.90;;;;;;;-6.24;83.85;98000.09;4908836;29;20126;-65
2021/12/02 03:35:33;;;;;;;6.63;1.40;;;;;;;-6.27;83.66;98000.28;4941417;29;20055;-63
2021/12/02 03:37:59;;;;;;;4.10;1.10;;;;;;;-6.21;83.91;98010.44;4914799;29;20083;-66
2021/12/02 03:40:26;;;;;;;5.03;1.33;;;;;;;-6.39;84.19;97982.56;4918122;29;20075;-66
2021/12/02 03:42:53;;;;;;;7.72;1.60;;;;;;;-6.40;84.30;97989.63;4906082;29;20147;-65
2021/12/02 03:45:22;;;;;;;4.75;1.13;;;;;;;-6.23;84.72;98014.09;4933867;29;20052;-66
2021/12/02 03:47:48;;;;;;;5.10;1.42;;;;;;;-6.25;84.82;97998.41;4924873;29;20059;-65
2021/12/02 03:50:14;;;;;;;6.75;1.60;;;;;;;-6.19;84.76;98013.81;4952018;29;20048;-66
2021/12/02 03:52:40;;;;;;;5.53;1.88;;;;;;;-6.19;85.17;98012.97;4932782;29;20064;-67
2021/12/02 03:55:07;;;;;;;6.85;2.10;;;;;;;-6.25;84.83;98026.47;4890862;29;20060;-66
2021/12/02 03:57:33;;;;;;;6.25;1.50;;;;;;;-6.28;85.42;98019.63;4897216;29;20060;-64
2021/12/02 04:00:04;;;;;;;7.00;1.73;;;;;;;-6.48;84.56;97991.81;4898168;29;20053;-66
2021/12/02 04:02:38;;;;;;;6.45;1.90;;;;;;;-6.32;85.67;98023.34;4906734;29;20147;-65
2021/12/02 04:05:04;;;;;;;7.72;2.03;;;;;;;-6.29;86.22;98036.31;4918554;29;20119;-69
2021/12/02 04:07:30;;;;;;;6.85;1.98;;;;;;;-6.45;87.68;98022.34;4914737;29;20533;-65
2021/12/02 04:09:57;;;;;;;6.05;1.60;;;;;;;-6.36;88.11;98038.47;4898400;29;20148;-66
2021/12/02 04:15:28;;;;;;;6.63;2.15;;;;;;;-6.50;89.15;98035.75;4915475;29;20056;-65
2021/12/02 04:17:44;;;;;;;8.45;2.00;;;;;;;-6.71;90.16;98014.13;4902102;29;20525;-65
2021/12/02 04:20:14;;;;;;;6.18;1.73;;;;;;;-6.63;91.48;98029.47;4896438;29;20063;-65
2021/12/02 04:22:41;;;;;;;6.90;1.85;;;;;;;-6.53;91.10;98049.06;4865205;29;20495;-66
2021/12/02 04:25:08;;;;;;;6.30;1.60;;;;;;;-6.58;91.78;98049.31;4895449;29;20061;-67
2021/12/02 04:27:34;;;;;;;6.10;1.75;;;;;;;-6.73;91.63;98023.00;4908638;29;20055;-65
2021/12/02 04:30:00;;;;;;;6.55;1.58;;;;;;;-6.63;91.83;98046.06;4899118;29;20052;-65
2021/12/02 04:32:26;;;;;;;6.32;1.60;;;;;;;-6.59;91.50;98058.09;4902854;29;20068;-65
2021/12/02 04:34:51;;;;;;;7.55;1.60;;;;;;;-6.57;90.82;98064.16;4916534;29;20082;-65
2021/12/02 04:37:17;;;;;;;6.05;1.80;;;;;;;-6.85;91.05;98014.03;4885238;29;20425;-66
2021/12/02 04:39:43;;;;;;;5.70;1.60;;;;;;;-6.62;90.88;98050.41;4901814;29;20055;-64
2021/12/02 04:42:10;;;;;;;7.63;1.90;;;;;;;-6.60;89.82;98066.94;4906316;29;20095;-66
2021/12/02 04:44:36;;;;;;;6.72;1.88;;;;;;;-6.62;90.53;98074.06;4908453;29;20091;-65
2021/12/02 04:47:02;;;;;;;8.65;1.88;;;;;;;-6.60;90.14;98082.69;4881076;29;20052;-65
2021/12/02 04:49:27;;;;;;;5.90;1.60;;;;;;;-6.85;89.97;98035.88;4928523;29;20059;-65
2021/12/02 04:51:54;;;;;;;7.20;1.70;;;;;;;-6.66;90.23;98072.50;4913984;29;20070;-66
2021/12/02 04:54:20;;;;;;;7.03;1.98;;;;;;;-6.80;89.20;98077.66;4863848;29;20066;-66
2021/12/02 04:56:46;;;;;;;7.68;2.30;;;;;;;-6.92;89.53;98062.56;4899168;29;20073;-66
2021/12/02 04:59:12;;;;;;;7.72;2.30;;;;;;;-7.17;90.15;98044.63;4927072;29;20081;-67
2021/12/02 05:01:38;;;;;;;7.90;2.20;;;;;;;-7.18;90.86;98067.41;4904023;29;20059;-66
2021/12/02 05:04:04;;;;;;;7.40;2.20;;;;;;;-7.21;90.81;98070.22;4906481;29;20126;-66
2021/12/02 05:06:30;;;;;;;6.82;2.20;;;;;;;-7.46;91.25;98049.63;4924579;29;20080;-66
2021/12/02 05:08:57;;;;;;;6.70;1.95;;;;;;;-7.25;91.13;98100.16;4886133;29;20050;-67
2021/12/02 05:11:24;;;;;;;6.45;1.88;;;;;;;-7.48;91.52;98071.66;4916066;29;20074;-68
2021/12/02 05:13:49;;;;;;;7.75;1.90;;;;;;;-7.39;91.05;98086.91;4920063;29;20055;-73
2021/12/02 05:16:16;;;;;;;7.15;2.00;;;;;;;-7.31;90.80;98100.50;4886552;29;20048;-70
2021/12/02 05:18:42;;;;;;;7.97;2.25;;;;;;;-7.28;90.27;98106.44;4886547;29;20525;-65
2021/12/02 05:21:08;;;;;;;8.85;2.13;;;;;;;-7.27;90.43;98102.03;4920041;29;20058;-65
2021/12/02 05:23:34;;;;;;;6.90;1.90;;;;;;;-7.23;89.41;98100.97;4885438;29;20123;-67
2021/12/02 05:26:00;;;;;;;8.73;2.45;;;;;;;-7.23;89.54;98110.63;4880635;29;20438;-66
2021/12/02 05:28:26;;;;;;;7.18;2.25;;;;;;;-7.25;88.98;98105.41;4901900;29;20044;-66
2021/12/02 05:30:52;;;;;;;7.45;2.03;;;;;;;-7.25;89.43;98113.31;4877793;29;20056;-66
2021/12/02 05:33:18;;;;;;;9.43;2.80;;;;;;;-7.20;88.61;98115.69;4909101;29;20153;-70
2021/12/02 05:35:44;;;;;;;8.15;2.42;;;;;;;-7.20;89.21;98119.19;4909968;29;20510;-72
2021/12/02 05:38:10;;;;;;;8.05;2.03;;;;;;;-7.17;88.97;98119.00;4878612;29;20131;-69
2021/12/02 05:40:36;;;;;;;6.97;1.80;;;;;;;-7.13;88.59;98115.31;4902139;29;20140;-69
2021/12/02 05:43:02;;;;;;;5.80;1.63;;;;;;;-7.13;87.42;98125.81;4893731;29;20085;-67
2021/12/02 05:45:28;;;;;;;6.65;1.83;;;;;;;-7.16;87.46;98125.97;4882515;29;20067;-66
2021/12/02 05:47:54;;;;;;;8.20;2.53;;;;;;;-7.11;87.31;98128.34;4883334;29;20053;-67
2021/12/02 05:50:20;;;;;;;8.63;2.10;;;;;;;-7.16;87.30;98119.88;4876836;29;20083;-67
2021/12/02 05:52:46;;;;;;;6.78;1.95;;;;;;;-7.29;87.51;98093.38;4870981;29;20107;-69
2021/12/02 05:55:12;;;;;;;6.90;1.92;;;;;;;-7.07;86.55;98140.38;4903918;29;20044;-68
2021/12/02 05:57:37;;;;;;;5.55;1.50;;;;;;;-7.12;86.25;98127.50;4902729;29;20686;-65
2021/12/02 06:00:06;;;;;;;6.18;1.75;;;;;;;-6.97;86.15;98135.50;4855306;29;20048;-67
2021/12/02 06:02:38;;;;;;;5.20;1.42;;;;;;;-7.10;85.56;98114.28;4899790;29;20068;-67
2021/12/02 06:05:05;;;;;;;7.43;2.10;;;;;;;-6.83;85.24;98149.63;4901246;29;20439;-65
2021/12/02 06:07:31;;;;;;;8.30;1.77;;;;;;;-6.97;84.71;98132.88;4907942;29;20056;-66
2021/12/02 06:09:57;;;;;;;7.45;1.77;;;;;;;-6.90;84.71;98137.75;4908988;29;20505;-65
2021/12/02 06:12:23;;;;;;;8.20;1.80;;;;;;;-7.11;84.49;98087.19;4877475;29;20075;-67
2021/12/02 06:14:49;;;;;;;7.07;1.60;;;;;;;-6.83;84.01;98143.53;4898240;29;20052;-67
2021/12/02 06:17:15;;;;;;;6.25;1.83;;;;;;;-6.70;83.65;98165.56;4893373;29;20546;-66
2021/12/02 06:19:41;;;;;;;7.82;2.00;;;;;;;-6.79;83.73;98147.69;4880918;29;20056;-67
2021/12/02 06:22:08;;;;;;;8.13;1.65;;;;;;;-6.87;83.87;98142.00;4924104;29;20064;-68
2021/12/02 06:27:30;;;;;;;6.13;1.77;;;;;;;-6.62;82.99;98173.94;4889803;29;20090;-64
2021/12/02 06:29:55;;;;;;;6.55;1.73;;;;;;;-6.55;82.42;98172.66;4908276;29;20048;-65
2021/12/02 06:32:21;;;;;;;8.93;2.08;;;;;;;-6.53;82.05;98169.09;4911079;29;20055;-75
2021/12/02 06:34:47;;;;;;;8.93;2.25;;;;;;;-6.69;81.89;98141.03;4900276;29;20573;-67
2021/12/02 06:37:13;;;;;;;8.13;2.58;;;;;;;-6.46;82.06;98173.09;4912805;29;20059;-71
2021/12/02 06:39:42;;;;;;;11.10;2.65;;;;;;;-6.47;81.70;98172.25;4891097;29;20048;-74
2021/12/02 06:42:08;;;;;;;6.90;2.40;;;;;;;-6.57;82.12;98139.50;4915463;29;20477;-76
2021/12/02 06:44:34;;;;;;;6.75;2.13;;;;;;;-6.49;80.67;98154.88;4925704;29;20210;-66
2021/12/02 06:47:00;;;;;;;7.57;2.58;;;;;;;-6.43;81.23;98172.94;4889528;29;20052;-77
2021/12/02 06:49:27;;;;;;;9.90;2.80;;;;;;;-6.33;81.81;98189.91;4903762;29;20055;-73
2021/12/02 06:51:53;;;;;;;7.70;2.22;;;;;;;-6.33;81.56;98174.13;4905344;29;20068;-72
2021/12/02 06:54:20;;;;;;;6.43;1.65;;;;;;;-6.32;80.58;98149.56;4900246;29;20073;-71
2021/12/02 06:56:46;;;;;;;8.15;2.33;;;;;;;-6.31;80.14;98162.59;4891293;29;20115;-71
2021/12/02 06:59:13;;;;;;;7.32;1.63;;;;;;;-6.15;79.23;98167.88;4904245;29;20051;-75
2021/12/02 07:01:41;;;;;;;7.43;1.90;;;;;;;-6.22;79.97;98129.69;4899091;29;20052;-78
2021/12/02 07:04:08;;;;;;;10.13;2.95;;;;;;;-5.87;80.29;98177.69;4901196;29;20071;-73
2021/12/02 07:06:36;;;;;;;9.13;1.95;;;;;;;-5.78;78.47;98178.09;4891743;29;20049;-76
2021/12/02 07:09:03;;;;;;;6.60;1.80;;;;;;;-5.79;79.33;98172.00;4916693;29;20064;-75
2021/12/02 07:11:29;;;;;;;8.63;2.30;;;;;;;-5.74;78.26;98167.34;4878892;29;20071;-75
2021/12/02 07:14:00;;;;;;;6.32;1.75;;;;;;;-5.89;79.08;98115.56;4882705;29;20514;-76
2021/12/02 07:16:26;;;;;;;8.13;2.08;;;;;;;-5.53;77.55;98180.19;4881526;29;20059;-72
2021/12/02 07:19:25;;;;;;;6.60;1.80;;;;;;;-5.58;76.85;98185.72;4860553;29;20450;-71
2021/12/02 07:21:51;;;;;;;8.52;2.10;;;;;;;-5.63;77.02;98191.25;4868547;29;21099;-71
2021/12/02 07:24:17;;;;;;;6.28;1.50;;;;;;;-5.53;77.53;98196.00;4895551;29;20646;-73
2021/12/02 07:26:46;;;;;;;10.13;2.28;;;;;;;-5.52;77.49;98197.69;4910697;29;20106;-78
2021/12/02 07:29:15;;;;;;;9.27;2.50;;;;;;;-5.45;77.07;98175.34;4888431;29;20130;-81
2021/12/02 07:31:41;;;;;;;7.65;2.17;;;;;;;-5.49;76.88;98150.13;4884740;29;20139;-77
2021/12/02 07:37:15;;;;;;;7.15;1.98;;;;;;;-5.51;77.14;98147.59;4916457;29;20078;-72
2021/12/02 07:39:41;;;;;;;7.55;1.95;;;;;;;-5.25;75.62;98177.69;4896043;29;20390;-74
2021/12/02 07:42:07;;;;;;;8.52;1.92;;;;;;;-5.21;76.21;98194.16;4895896;29;20060;-72
2021/12/02 07:44:36;;;;;;;8.45;2.20;;;;;;;-5.31;76.23;98167.50;4875607;29;20551;-71
2021/12/02 07:47:03;;;;;;;7.25;2.13;;;;;;;-5.28;75.67;98196.28;4897656;29;20079;-74
2021/12/02 07:49:29;;;;;;;11.68;2.72;;;;;;;-5.32;76.61;98173.69;4919749;29;20111;-71
2021/12/02 07:51:59;;;;;;;12.82;2.25;;;;;;;-5.20;76.76;98191.41;4912001;29;20072;-74
2021/12/02 07:54:26;;;;;;;8.18;2.10;;;;;;;-5.26;76.38;98183.91;4900059;29;20157;-79
2021/12/02 07:56:53;;;;;;;6.82;1.83;;;;;;;-5.06;76.24;98184.50;4888204;29;20056;-70
2021/12/02 07:59:20;;;;;;;10.52;2.55;;;;;;;-5.18;75.85;98171.13;4916564;29;20044;-73
2021/12/02 08:01:46;;;;;;;9.35;2.05;;;;;;;-5.14;76.00;98179.69;4898573;29;20115;-75
2021/12/02 08:04:13;;;;;;;7.95;2.35;;;;;;;-5.20;76.05;98196.69;4894376;29;20080;-75
2021/12/02 08:06:39;;;;;;;9.63;2.88;;;;;;;-5.23;76.38;98180.22;4898215;29;20075;-76
2021/12/02 08:09:06;;;;;;;12.57;2.88;;;;;;;-5.39;76.59;98162.66;4878675;29;20056;-74
2021/12/02 08:11:33;;;;;;;8.38;2.47;;;;;;;-5.39;76.88;98178.47;4883825;29;20056;-73
2021/12/02 08:13:59;;;;;;;8.65;2.53;;;;;;;-5.63;77.28;98143.88;4872521;29;20056;-72
2021/12/02 08:16:25;;;;;;;8.73;2.05;;;;;;;-5.44;76.41;98158.63;4909241;29;20048;-72
2021/12/02 08:18:51;;;;;;;8.75;1.90;;;;;;;-5.38;76.56;98160.88;4905734;29;20071;-73
2021/12/02 08:21:17;;;;;;;10.10;2.28;;;;;;;-5.36;77.07;98161.66;4894022;29;20127;-73
2021/12/02 08:23:43;;;;;;;8.02;2.25;;;;;;;-5.48;76.12;98146.59;4910562;29;20056;-74
2021/12/02 08:26:12;;;;;;;8.27;2.15;;;;;;;-5.25;76.05;98175.03;4869844;29;20064;-74
2021/12/02 08:28:38;;;;;;;7.70;2.00;;;;;;;-5.28;76.47;98148.88;4879414;29;20108;-70
2021/12/02 08:31:04;;;;;;;11.05;2.22;;;;;;;-5.35;76.20;98134.38;4899642;29;20051;-78
2021/12/02 08:33:30;;;;;;;8.75;2.60;;;;;;;-5.19;76.08;98158.03;4869584;29;20660;-76
2021/12/02 08:35:56;;;;;;;10.43;2.20;;;;;;;-5.22;76.22;98153.81;4900538;29;20048;-76
2021/12/02 08:38:30;;;;;;;8.05;2.45;;;;;;;-5.28;76.53;98138.34;4895284;29;20505;-79
2021/12/02 08:40:58;;;;;;;10.30;2.83;;;;;;;-5.14;76.36;98172.63;4889482;29;20056;-80
2021/12/02 08:43:24;;;;;;;9.07;2.40;;;;;;;-5.17;76.39;98167.53;4895751;29;20048;-78
2021/12/02 08:45:49;;;;;;;8.90;3.05;;;;;;;-5.27;76.16;98161.09;4917116;29;20063;-76
2021/12/02 08:48:16;;;;;;;12.48;3.22;;;;;;;-5.21;77.11;98160.75;4861722;29;20123;-68
2021/12/02 08:50:42;;;;;;;10.90;2.83;;;;;;;-5.03;78.06;98163.25;4898661;29;20147;-75
2021/12/02 08:53:10;;;;;;;10.80;3.08;;;;;;;-5.22;77.01;98138.00;4911840;29;20060;-72
2021/12/02 08:55:36;;;;;;;10.45;3.25;;;;;;;-5.14;77.90;98155.97;4872578;29;20076;-72
2021/12/02 08:58:04;;;;;;;9.80;3.30;;;;;;;-5.10;77.75;98155.69;4898802;29;20067;-66
2021/12/02 09:00:36;;;;;;;11.50;3.38;;;;;;;-5.07;77.84;98159.09;4924801;29;20476;-71
2021/12/02 09:03:03;;;;;;;8.57;2.75;;;;;;;-5.03;78.33;98158.81;4908159;29;20147;-70
2021/12/02 09:05:29;;;;;;;11.52;3.90;;;;;;;-5.14;77.48;98141.00;4898663;29;20059;-66
2021/12/02 09:07:55;;;;;;;6.68;2.38;;;;;;;-4.81;76.81;98145.22;4924798;29;20055;-66
2021/12/02 09:10:21;;;;;;;8.65;2.60;;;;;;;-4.92;76.09;98081.78;4883328;29;20143;-70
2021/12/02 09:12:48;;;;;;;10.80;2.95;;;;;;;-4.75;76.44;98131.66;4923572;29;20529;-69
2021/12/02 09:15:15;;;;;;;11.43;3.45;;;;;;;-4.76;76.58;98137.00;4924659;29;20467;-71
2021/12/02 09:17:42;;;;;;;11.82;3.63;;;;;;;-4.75;76.11;98142.22;4862662;29;20097;-75
2021/12/02 09:20:11;;;;;;;9.63;3.38;;;;;;;-5.54;76.44;98046.88;4910509;29;20462;-75
2021/12/02 09:22:37;;;;;;;11.55;3.58;;;;;;;-5.00;76.75;98126.19;4884276;29;20401;-73
2021/12/02 09:25:05;;;;;;;10.30;3.10;;;;;;;-4.82;77.25;98140.03;4879898;29;20048;-74
2021/12/02 09:27:31;;;;;;;10.52;2.38;;;;;;;-4.98;76.32;98113.75;4878842;29;20075;-70
2021/12/02 09:29:57;;;;;;;11.07;2.92;;;;;;;-4.81;77.38;98137.31;4910498;29;20444;-70
2021/12/02 09:32:22;;;;;;;11.00;3.40;;;;;;;-4.80;75.99;98143.41;4879614;29;20150;-69
2021/12/02 09:34:49;;;;;;;10.75;2.92;;;;;;;-4.83;76.28;98141.81;4877274;29;20072;-70
2021/12/02 09:37:15;;;;;;;9.23;2.75;;;;;;;-4.76;76.86;98140.50;4909509;29;20062;-71
2021/12/02 09:39:41;;;;;;;12.45;3.58;;;;;;;-4.79;76.02;98130.16;4880320;29;20060;-71
2021/12/02 09:42:10;;;;;;;9.30;3.10;;;;;;;-4.79;75.94;98124.91;4898468;29;20057;-71
2021/12/02 09:44:39;;;;;;;10.77;3.05;;;;;;;-4.74;76.06;98137.78;4886126;29;20071;-67
2021/12/02 09:47:05;;;;;;;9.75;2.92;;;;;;;-4.88;75.93;98088.53;4921130;29;20052;-73
2021/12/02 09:49:32;;;;;;;11.32;3.92;;;;;;;-5.02;75.70;98075.34;4896874;29;20059;-70
2021/12/02 09:52:03;;;;;;;8.70;2.90;;;;;;;-4.86;75.59;98086.69;4883609;29;20528;-69
2021/12/02 09:54:42;;;;;;;10.50;3.55;;;;;;;-4.66;75.29;98115.28;4917314;29;20067;-70
2021/12/02 09:57:13;;;;;;;9.48;3.40;;;;;;;-4.90;75.63;98070.22;4882626;29;20173;-66
2021/12/02 09:59:51;;;;;;;12.35;3.67;;;;;;;-4.67;75.20;98108.31;4915554;29;20135;-71
2021/12/02 10:02:20;;;;;;;12.88;3.63;;;;;;;-4.69;75.85;98093.53;4896960;29;20061;-69
2021/12/02 10:04:52;;;;;;;8.27;3.00;;;;;;;-4.63;76.07;98099.28;4895245;29;20056;-69
2021/12/02 10:07:26;;;;;;;18.88;3.92;;;;;;;-4.67;76.20;98086.38;4883044;29;20079;-69
2021/12/02 10:10:04;;;;;;;11.48;3.25;;;;;;;-4.80;76.41;98069.63;4889465;29;20506;-69
2021/12/02 10:12:51;;;;;;;8.60;3.17;;;;;;;-5.00;76.02;98041.88;4914249;29;20107;-69
2021/12/02 10:15:18;;;;;;;8.27;2.67;;;;;;;-4.84;76.01;98068.97;4884625;29;20152;-69
2021/12/02 10:17:50;;;;;;;10.93;2.75;;;;;;;-5.05;76.28;98049.19;4897228;29;20057;-69
2021/12/02 10:23:18;;;;;;;9.77;2.70;;;;;;;-4.65;76.18;98077.41;4882623;29;20099;-69
2021/12/02 10:26:05;;;;;;;8.68;2.72;;;;;;;-4.65;75.74;98095.03;4903438;29;20166;-69
2021/12/02 10:28:36;;;;;;;9.43;2.90;;;;;;;-4.76;76.07;98066.69;4905358;29;20526;-69
2021/12/02 10:31:05;;;;;;;9.32;2.65;;;;;;;-4.73;74.98;98066.50;4883875;29;20056;-69
2021/12/02 10:33:35;;;;;;;8.93;2.70;;;;;;;-4.54;75.39;98091.72;4907573;29;20056;-69
2021/12/02 10:36:03;;;;;;;9.40;3.53;;;;;;;-4.58;74.76;98092.88;4900674;29;20052;-69
2021/12/02 10:38:44;;;;;;;8.90;2.33;;;;;;;-4.57;75.25;98070.81;4912247;29;20116;-69
2021/12/02 10:41:13;;;;;;;8.05;2.45;;;;;;;-4.44;75.28;98082.31;4898912;29;20052;-70
2021/12/02 10:44:05;;;;;;;8.55;2.80;;;;;;;-4.48;75.25;98075.53;4914952;29;20052;-69
2021/12/02 10:46:35;;;;;;;9.80;3.00;;;;;;;-4.49;75.82;98068.56;4911942;29;20072;-69
2021/12/02 10:49:01;;;;;;;7.68;2.63;;;;;;;-4.54;75.15;98063.56;4910966;29;20132;-69
2021/12/02 10:51:50;;;;;;;8.60;2.85;;;;;;;-4.47;76.19;98066.66;4898091;29;20068;-69
2021/12/02 10:54:33;;;;;;;12.43;2.53;;;;;;;-4.40;76.08;98067.97;4891632;29;20057;-65
2021/12/02 10:57:07;;;;;;;9.48;2.88;;;;;;;-4.52;75.73;98042.38;4911927;29;20104;-66
2021/12/02 10:59:43;;;;;;;9.13;2.60;;;;;;;-4.54;75.43;98025.81;4906550;29;20541;-68
2021/12/02 11:02:35;;;;;;;10.15;2.60;;;;;;;-4.30;75.54;98058.53;4913453;29;20092;-66
2021/12/02 11:05:10;;;;;;;8.30;2.30;;;;;;;-4.32;75.24;98056.94;4878266;29;20060;-67
2021/12/02 11:07:41;;;;;;;8.50;3.03;;;;;;;-4.43;75.53;98036.50;4901471;29;20430;-66
2021/12/02 11:10:11;;;;;;;9.77;3.05;;;;;;;-4.48;75.79;98017.50;4897501;29;20735;-68
2021/12/02 11:12:48;;;;;;;10.15;2.30;;;;;;;-4.46;75.25;98016.47;4898790;29;20620;-67
2021/12/02 11:15:23;;;;;;;9.55;2.40;;;;;;;-4.30;75.72;98048.00;4899838;29;20470;-67
2021/12/02 11:17:57;;;;;;;8.15;2.42;;;;;;;-4.20;75.81;98054.38;4896547;29;20111;-67
2021/12/02 11:20:28;;;;;;;8.45;2.90;;;;;;;-4.23;75.54;98053.72;4896542;29;20060;-69
2021/12/02 11:22:55;;;;;;;8.68;2.50;;;;;;;-4.21;75.44;98042.09;4896124;29;20067;-67
2021/12/02 11:25:21;;;;;;;9.90;2.20;;;;;;;-4.17;75.87;98054.19;4914113;29;20065;-69
2021/12/02 11:27:49;;;;;;;9.82;2.47;;;;;;;-4.21;75.69;98036.81;4895523;29;20063;-68
2021/12/02 11:30:27;;;;;;;8.75;2.45;;;;;;;-4.26;75.36;98017.81;4909633;29;20202;-67
2021/12/02 11:33:01;;;;;;;8.10;2.13;;;;;;;-4.19;75.53;98034.94;4901916;29;20100;-67
2021/12/02 11:35:29;;;;;;;7.68;2.78;;;;;;;-4.20;76.80;98027.16;4911522;29;20052;-67
2021/12/02 11:38:15;;;;;;;7.28;1.80;;;;;;;-4.38;76.70;97992.25;4911006;29;20108;-66
2021/12/02 11:40:43;;;;;;;7.68;2.60;;;;;;;-4.18;77.67;98018.16;4896497;29;20155;-67
2021/12/02 11:43:12;;;;;;;9.95;3.08;;;;;;;-4.17;77.09;98004.06;4912725;29;20064;-69
2021/12/02 11:45:43;;;;;;;9.23;2.40;;;;;;;-4.22;77.07;97987.66;4904782;29;20060;-68
2021/12/02 11:48:11;;;;;;;8.00;2.20;;;;;;;-4.20;76.45;98001.63;4911355;29;20052;-68
2021/12/02 11:50:38;;;;;;;7.03;2.22;;;;;;;-4.15;76.14;97994.22;4865337;29;20056;-67
2021/12/02 11:53:04;;;;;;;9.18;2.63;;;;;;;-4.22;76.14;97978.91;4910772;29;20104;-68
2021/12/02 11:55:34;;;;;;;12.45;3.35;;;;;;;-4.23;75.50;97985.13;4885065;29;20053;-66
2021/12/02 11:58:00;;;;;;;9.15;2.47;;;;;;;-4.35;76.30;97960.41;4881580;29;20060;-67
2021/12/02 12:00:28;;;;;;;9.07;2.97;;;;;;;-4.25;76.75;97987.00;4861284;29;20052;-67
2021/12/02 12:03:00;;;;;;;10.98;2.60;;;;;;;-4.26;77.13;97986.16;4895852;29;20063;-67